Time;durP1;ratioP1;P1;durP2;ratioP2;P2;SDS_P1;SDS_P2;PMS_P1;PMS_P2;Temp;Humidity;BMP_temperature;BMP_pressure;BME280_temperature;BME280_humidity;BME280_pressure;Samples;Min_cycle;Max_cycle;Signal;HPM_P1;HPM_P2
2022/01/31 00:01:00;;;;;;;8.48;2.30;;;;;;;;;;4994755;28;20026;-84
2022/01/31 00:03:30;;;;;;;9.70;3.45;;;;;;;;;;5006285;28;20042;-83
2022/01/31 00:05:56;;;;;;;8.65;2.35;;;;;;;;;;5004867;28;20021;-83
2022/01/31 00:08:24;;;;;;;9.48;2.83;;;;;;;;;;5002090;28;20106;-83
2022/01/31 00:10:51;;;;;;;10.45;2.92;;;;;;;;;;5004930;28;20030;-84
2022/01/31 00:13:35;;;;;;;8.32;2.85;;;;;;;;;;5004836;28;20033;-83
2022/01/31 00:16:02;;;;;;;9.65;3.05;;;;;;;;;;5005279;28;20106;-83
2022/01/31 00:18:29;;;;;;;8.48;2.90;;;;;;;;;;5004551;28;20045;-83
2022/01/31 00:23:58;;;;;;;6.50;2.67;;;;;;;;;;5006771;28;20086;-82
2022/01/31 00:26:24;;;;;;;7.57;2.45;;;;;;;;;;5000427;28;20027;-83
2022/01/31 00:28:51;;;;;;;11.23;2.88;;;;;;;;;;5009982;28;20117;-85
2022/01/31 00:31:17;;;;;;;9.00;2.70;;;;;;;;;;5001553;28;20093;-84
2022/01/31 00:33:43;;;;;;;8.82;2.70;;;;;;;;;;5004815;28;20060;-84
2022/01/31 00:36:10;;;;;;;8.95;2.33;;;;;;;;;;5004596;28;20022;-84
2022/01/31 00:38:38;;;;;;;7.53;2.55;;;;;;;;;;5003182;28;20053;-83
2022/01/31 00:41:04;;;;;;;6.57;2.63;;;;;;;;;;5004451;28;20484;-83
2022/01/31 00:43:33;;;;;;;8.68;2.75;;;;;;;;;;5004058;28;20053;-84
2022/01/31 00:46:02;;;;;;;7.75;3.05;;;;;;;;;;5004047;28;20045;-85
2022/01/31 00:48:33;;;;;;;6.90;2.80;;;;;;;;;;5005998;28;20025;-83
2022/01/31 00:51:00;;;;;;;9.80;3.17;;;;;;;;;;5006038;28;20018;-83
2022/01/31 00:53:26;;;;;;;9.93;2.47;;;;;;;;;;5009229;28;20023;-84
2022/01/31 00:55:52;;;;;;;10.50;2.85;;;;;;;;;;5010465;28;20455;-84
2022/01/31 00:58:18;;;;;;;7.88;2.13;;;;;;;;;;5008225;28;20097;-83
2022/01/31 01:00:45;;;;;;;7.90;2.78;;;;;;;;;;5005155;28;20093;-82
2022/01/31 01:03:11;;;;;;;9.27;2.70;;;;;;;;;;5005683;28;20049;-83
2022/01/31 01:05:38;;;;;;;10.13;2.63;;;;;;;;;;5004733;28;20077;-83
2022/01/31 01:08:06;;;;;;;7.18;2.03;;;;;;;;;;5004125;28;20061;-83
2022/01/31 01:10:32;;;;;;;8.07;2.60;;;;;;;;;;5005078;28;20026;-82
2022/01/31 01:12:59;;;;;;;10.75;3.13;;;;;;;;;;5005342;28;20477;-84
2022/01/31 01:15:25;;;;;;;6.85;2.55;;;;;;;;;;5003190;28;20054;-83
2022/01/31 01:17:52;;;;;;;10.15;2.60;;;;;;;;;;5000484;28;20026;-83
2022/01/31 01:20:19;;;;;;;7.93;2.30;;;;;;;;;;5004938;28;20558;-83
2022/01/31 01:22:46;;;;;;;8.02;2.55;;;;;;;;;;5003848;28;20029;-83
2022/01/31 01:25:13;;;;;;;9.05;2.38;;;;;;;;;;5005049;28;20026;-83
2022/01/31 01:27:41;;;;;;;10.98;2.75;;;;;;;;;;5003627;28;20042;-82
2022/01/31 01:30:10;;;;;;;8.88;2.55;;;;;;;;;;5007087;28;20025;-83
2022/01/31 01:32:46;;;;;;;10.07;2.35;;;;;;;;;;5009765;28;20037;-84
2022/01/31 01:35:13;;;;;;;7.88;2.80;;;;;;;;;;5010017;28;20022;-82
2022/01/31 01:37:39;;;;;;;8.82;2.72;;;;;;;;;;5008115;28;20030;-82
2022/01/31 01:40:06;;;;;;;12.48;2.30;;;;;;;;;;5007031;28;20026;-81
2022/01/31 01:42:33;;;;;;;7.15;2.10;;;;;;;;;;5002560;28;20057;-82
2022/01/31 01:45:00;;;;;;;7.93;2.33;;;;;;;;;;5004525;28;20034;-82
2022/01/31 01:47:26;;;;;;;7.85;2.38;;;;;;;;;;5001745;28;20076;-84
2022/01/31 01:49:53;;;;;;;7.88;3.17;;;;;;;;;;5003871;28;20030;-81
2022/01/31 01:52:20;;;;;;;5.55;2.20;;;;;;;;;;5002614;28;20033;-81
2022/01/31 01:54:46;;;;;;;7.57;2.95;;;;;;;;;;5002764;28;20030;-81
2022/01/31 01:57:13;;;;;;;7.90;2.20;;;;;;;;;;5003816;28;20045;-82
2022/01/31 01:59:40;;;;;;;7.53;2.67;;;;;;;;;;5003427;28;20054;-81
2022/01/31 02:02:07;;;;;;;6.32;2.35;;;;;;;;;;5002164;28;20046;-82
2022/01/31 02:04:34;;;;;;;6.38;2.40;;;;;;;;;;4990941;28;20038;-83
2022/01/31 02:10:06;;;;;;;9.15;2.42;;;;;;;;;;5004606;28;20076;-82
2022/01/31 02:12:42;;;;;;;7.35;2.13;;;;;;;;;;4999386;28;20026;-83
2022/01/31 02:15:09;;;;;;;7.57;2.40;;;;;;;;;;5002205;28;20109;-83
2022/01/31 02:17:36;;;;;;;9.45;2.70;;;;;;;;;;5002524;28;20046;-82
2022/01/31 02:20:04;;;;;;;7.20;2.63;;;;;;;;;;5001716;28;20162;-82
2022/01/31 02:22:32;;;;;;;7.63;2.67;;;;;;;;;;4998380;28;20030;-81
2022/01/31 02:24:59;;;;;;;7.53;2.38;;;;;;;;;;5001882;28;20529;-82
2022/01/31 02:27:33;;;;;;;9.80;2.67;;;;;;;;;;5002247;28;20080;-82
2022/01/31 02:29:59;;;;;;;7.35;2.47;;;;;;;;;;5004596;28;20026;-82
2022/01/31 02:32:26;;;;;;;7.30;2.38;;;;;;;;;;5004879;28;20171;-81
2022/01/31 02:34:52;;;;;;;8.25;1.98;;;;;;;;;;5002665;28;20050;-83
2022/01/31 02:37:19;;;;;;;5.65;2.28;;;;;;;;;;5002144;28;20030;-83
2022/01/31 02:39:46;;;;;;;8.35;2.40;;;;;;;;;;5005675;28;20082;-82
2022/01/31 02:42:13;;;;;;;9.27;3.30;;;;;;;;;;5007719;28;20081;-82
2022/01/31 02:44:40;;;;;;;9.20;2.97;;;;;;;;;;5005854;28;20032;-81
2022/01/31 02:47:11;;;;;;;6.30;2.53;;;;;;;;;;5006954;28;20011;-82
2022/01/31 02:49:47;;;;;;;8.77;3.13;;;;;;;;;;5005967;28;20114;-80
2022/01/31 02:52:16;;;;;;;7.65;2.67;;;;;;;;;;5005185;28;20026;-82
2022/01/31 02:54:43;;;;;;;10.05;2.78;;;;;;;;;;5005762;28;20026;-82
2022/01/31 02:57:09;;;;;;;5.50;2.50;;;;;;;;;;5007122;28;20026;-83
2022/01/31 02:59:35;;;;;;;7.43;2.75;;;;;;;;;;5005223;28;20114;-82
2022/01/31 03:02:02;;;;;;;10.55;2.83;;;;;;;;;;5006088;28;20066;-82
2022/01/31 03:04:29;;;;;;;7.30;2.67;;;;;;;;;;5005123;28;20045;-82
2022/01/31 03:06:55;;;;;;;7.38;2.25;;;;;;;;;;5005670;28;20029;-82
2022/01/31 03:09:22;;;;;;;9.32;2.75;;;;;;;;;;5006297;28;20571;-82
2022/01/31 03:11:48;;;;;;;6.07;2.67;;;;;;;;;;5007154;28;20027;-82
2022/01/31 03:14:19;;;;;;;10.82;2.58;;;;;;;;;;5004909;28;20408;-81
2022/01/31 03:16:46;;;;;;;10.60;2.95;;;;;;;;;;5006213;28;20030;-81
2022/01/31 03:19:13;;;;;;;7.32;2.38;;;;;;;;;;5005628;28;20014;-82
2022/01/31 03:21:40;;;;;;;7.10;2.50;;;;;;;;;;5004884;28;20030;-80
2022/01/31 03:24:09;;;;;;;9.52;3.15;;;;;;;;;;4989913;28;20027;-81
2022/01/31 03:26:35;;;;;;;9.65;2.80;;;;;;;;;;5014445;28;20030;-84
2022/01/31 03:29:01;;;;;;;8.90;2.83;;;;;;;;;;5007666;28;20022;-82
2022/01/31 03:31:28;;;;;;;7.32;2.83;;;;;;;;;;5012333;28;20026;-83
2022/01/31 03:33:54;;;;;;;6.45;2.20;;;;;;;;;;5011075;28;20054;-82
2022/01/31 03:36:21;;;;;;;7.93;2.40;;;;;;;;;;5008175;28;20041;-83
2022/01/31 03:38:47;;;;;;;11.93;2.95;;;;;;;;;;5007505;28;20048;-81
2022/01/31 03:41:20;;;;;;;8.77;2.35;;;;;;;;;;5005796;28;20038;-82
2022/01/31 03:43:46;;;;;;;8.05;2.20;;;;;;;;;;5006104;28;20030;-82
2022/01/31 03:46:13;;;;;;;9.35;2.83;;;;;;;;;;5005858;28;20483;-81
2022/01/31 03:48:41;;;;;;;8.35;2.40;;;;;;;;;;5004760;28;20058;-82
2022/01/31 03:51:08;;;;;;;8.15;2.75;;;;;;;;;;5006051;28;20022;-82
2022/01/31 03:53:34;;;;;;;8.23;2.40;;;;;;;;;;5005354;28;20073;-81
2022/01/31 03:56:01;;;;;;;8.65;2.50;;;;;;;;;;5006926;28;20113;-82
2022/01/31 03:58:27;;;;;;;9.18;2.95;;;;;;;;;;5005996;28;20420;-83
2022/01/31 04:00:53;;;;;;;7.68;2.70;;;;;;;;;;5003375;28;20045;-80
2022/01/31 04:03:20;;;;;;;7.20;2.63;;;;;;;;;;4999997;28;20266;-81
2022/01/31 04:05:46;;;;;;;6.18;2.63;;;;;;;;;;5001146;28;20023;-80
2022/01/31 04:08:12;;;;;;;7.10;2.75;;;;;;;;;;4994459;28;20054;-82
2022/01/31 04:10:39;;;;;;;8.40;2.88;;;;;;;;;;4989469;28;20050;-83
2022/01/31 04:13:06;;;;;;;11.15;3.85;;;;;;;;;;4995372;28;20061;-81
2022/01/31 04:15:33;;;;;;;6.10;2.03;;;;;;;;;;5004915;28;20022;-81
2022/01/31 04:18:00;;;;;;;9.85;3.10;;;;;;;;;;5004593;28;20041;-80
2022/01/31 04:20:26;;;;;;;8.40;2.33;;;;;;;;;;5003466;28;20033;-80
2022/01/31 04:22:58;;;;;;;5.70;2.33;;;;;;;;;;5003746;28;20031;-81
2022/01/31 04:25:29;;;;;;;7.70;2.55;;;;;;;;;;5002538;28;20053;-82
2022/01/31 04:28:15;;;;;;;10.80;2.65;;;;;;;;;;4987242;28;20055;-82
2022/01/31 04:30:46;;;;;;;7.43;2.50;;;;;;;;;;5003226;28;20034;-81
2022/01/31 04:33:12;;;;;;;7.45;2.17;;;;;;;;;;5003567;28;20548;-81
2022/01/31 04:35:38;;;;;;;8.88;3.15;;;;;;;;;;5005411;28;20034;-81
2022/01/31 04:38:05;;;;;;;7.97;3.15;;;;;;;;;;5005127;28;20010;-81
2022/01/31 04:40:31;;;;;;;9.10;2.58;;;;;;;;;;5002843;28;20030;-81
2022/01/31 04:42:57;;;;;;;7.85;2.63;;;;;;;;;;4998823;28;20034;-81
2022/01/31 04:45:24;;;;;;;7.90;2.50;;;;;;;;;;5000362;28;20031;-82
2022/01/31 04:47:50;;;;;;;8.10;2.53;;;;;;;;;;5004419;28;20019;-82
2022/01/31 04:50:22;;;;;;;6.75;2.03;;;;;;;;;;5004181;28;20482;-80
2022/01/31 04:52:49;;;;;;;5.40;2.38;;;;;;;;;;5002046;28;20082;-81
2022/01/31 04:55:15;;;;;;;9.25;2.33;;;;;;;;;;5001433;28;20463;-82
2022/01/31 04:57:41;;;;;;;9.10;2.60;;;;;;;;;;4994179;28;20099;-82
2022/01/31 05:00:12;;;;;;;7.47;2.60;;;;;;;;;;4995300;28;20030;-81
2022/01/31 05:02:38;;;;;;;8.70;2.75;;;;;;;;;;5002902;28;20050;-80
2022/01/31 05:05:05;;;;;;;8.95;2.38;;;;;;;;;;5000880;28;20038;-81
2022/01/31 05:07:33;;;;;;;5.85;2.45;;;;;;;;;;5003002;28;20019;-82
2022/01/31 05:09:59;;;;;;;8.07;3.08;;;;;;;;;;5002427;28;20042;-82
2022/01/31 05:12:26;;;;;;;8.52;2.10;;;;;;;;;;5003050;28;20082;-81
2022/01/31 05:14:53;;;;;;;7.75;2.50;;;;;;;;;;5003248;28;20073;-82
2022/01/31 05:17:19;;;;;;;10.20;2.28;;;;;;;;;;5002095;28;20037;-80
2022/01/31 05:19:45;;;;;;;9.90;2.17;;;;;;;;;;5003515;28;20202;-81
2022/01/31 05:22:11;;;;;;;7.45;2.40;;;;;;;;;;5002766;28;20030;-81
2022/01/31 05:24:37;;;;;;;7.85;1.95;;;;;;;;;;4999929;28;20119;-83
2022/01/31 05:27:05;;;;;;;8.02;2.60;;;;;;;;;;4990073;28;20109;-81
2022/01/31 05:29:31;;;;;;;6.32;2.10;;;;;;;;;;4982449;28;20027;-79
2022/01/31 05:31:57;;;;;;;6.05;2.38;;;;;;;;;;5002834;28;20334;-80
2022/01/31 05:34:24;;;;;;;7.30;2.00;;;;;;;;;;5003596;28;20030;-82
2022/01/31 05:36:54;;;;;;;7.43;2.63;;;;;;;;;;5000886;28;20034;-80
2022/01/31 05:39:24;;;;;;;9.88;2.50;;;;;;;;;;5003694;28;20050;-81
2022/01/31 05:41:53;;;;;;;10.63;3.03;;;;;;;;;;5002519;28;20029;-81
2022/01/31 05:44:20;;;;;;;6.20;2.05;;;;;;;;;;5002375;28;20034;-82
2022/01/31 05:46:46;;;;;;;9.57;2.25;;;;;;;;;;5004522;28;20037;-81
2022/01/31 05:49:13;;;;;;;8.73;2.30;;;;;;;;;;5004081;28;20494;-81
2022/01/31 05:51:45;;;;;;;10.95;3.08;;;;;;;;;;5002633;28;20085;-82
2022/01/31 05:54:11;;;;;;;8.83;2.40;;;;;;;;;;5003622;28;20030;-82
2022/01/31 05:56:38;;;;;;;9.35;2.90;;;;;;;;;;5005459;28;20429;-82
2022/01/31 05:59:04;;;;;;;8.40;3.10;;;;;;;;;;5004912;28;20084;-82
2022/01/31 06:01:30;;;;;;;8.90;3.00;;;;;;;;;;5003010;28;20030;-82
2022/01/31 06:03:56;;;;;;;7.90;2.95;;;;;;;;;;5002534;28;20119;-81
2022/01/31 06:06:23;;;;;;;15.23;4.45;;;;;;;;;;5006325;28;20409;-82
2022/01/31 06:08:49;;;;;;;8.10;3.30;;;;;;;;;;5004563;28;20059;-82
2022/01/31 06:11:15;;;;;;;11.50;3.60;;;;;;;;;;5002221;28;20058;-82
2022/01/31 06:13:45;;;;;;;7.80;2.90;;;;;;;;;;5004798;28;20042;-82
2022/01/31 06:16:11;;;;;;;10.80;3.17;;;;;;;;;;5005556;28;20037;-83
2022/01/31 06:18:37;;;;;;;8.25;2.72;;;;;;;;;;5002723;28;20532;-83
2022/01/31 06:21:03;;;;;;;13.98;3.50;;;;;;;;;;4986628;28;20034;-83
2022/01/31 06:23:29;;;;;;;8.43;2.95;;;;;;;;;;4992894;28;20038;-83
2022/01/31 06:25:56;;;;;;;7.95;3.22;;;;;;;;;;5003669;28;20035;-83
2022/01/31 06:28:23;;;;;;;5.80;2.50;;;;;;;;;;4996572;28;20026;-82
2022/01/31 06:30:51;;;;;;;9.23;3.58;;;;;;;;;;5006610;28;20117;-82
2022/01/31 06:33:17;;;;;;;6.22;2.25;;;;;;;;;;5005318;28;20018;-82
2022/01/31 06:35:47;;;;;;;7.28;2.70;;;;;;;;;;5005277;28;20048;-82
2022/01/31 06:38:13;;;;;;;12.15;3.45;;;;;;;;;;5004430;28;20019;-81
2022/01/31 06:40:40;;;;;;;8.80;3.38;;;;;;;;;;5006440;28;20539;-82
2022/01/31 06:43:06;;;;;;;7.93;2.65;;;;;;;;;;5007191;28;20023;-81
2022/01/31 06:45:33;;;;;;;10.52;3.63;;;;;;;;;;5002890;28;21198;-82
2022/01/31 06:47:59;;;;;;;9.23;3.05;;;;;;;;;;5003747;28;20019;-82
2022/01/31 06:50:26;;;;;;;6.78;2.72;;;;;;;;;;5003905;28;20030;-83
2022/01/31 06:52:55;;;;;;;9.93;3.28;;;;;;;;;;5005125;28;20018;-82
2022/01/31 06:55:22;;;;;;;10.23;3.17;;;;;;;;;;5006366;28;20030;-82
2022/01/31 06:57:54;;;;;;;11.40;4.75;;;;;;;;;;5008003;28;20023;-82
2022/01/31 07:00:21;;;;;;;9.55;3.50;;;;;;;;;;5002433;28;20038;-82
2022/01/31 07:02:48;;;;;;;9.60;4.57;;;;;;;;;;5008281;28;20102;-82
2022/01/31 07:05:16;;;;;;;8.57;4.07;;;;;;;;;;5012996;28;20062;-82
2022/01/31 07:07:43;;;;;;;8.57;3.15;;;;;;;;;;5008951;28;20022;-82
2022/01/31 07:10:10;;;;;;;7.68;2.92;;;;;;;;;;5006904;28;20026;-82
2022/01/31 07:12:40;;;;;;;8.65;3.17;;;;;;;;;;5008451;28;20069;-82
2022/01/31 07:15:07;;;;;;;8.77;3.17;;;;;;;;;;5009970;28;20471;-82
2022/01/31 07:17:35;;;;;;;11.32;3.78;;;;;;;;;;5009388;28;20451;-83
2022/01/31 07:20:03;;;;;;;6.57;3.17;;;;;;;;;;5007668;28;20031;-81
2022/01/31 07:22:34;;;;;;;9.30;2.90;;;;;;;;;;5006299;28;20026;-82
2022/01/31 07:25:07;;;;;;;8.43;3.17;;;;;;;;;;5007277;28;20029;-82
2022/01/31 07:27:33;;;;;;;12.05;3.20;;;;;;;;;;5005089;28;20049;-82
2022/01/31 07:29:59;;;;;;;9.05;2.90;;;;;;;;;;5006326;28;20030;-82
2022/01/31 07:32:26;;;;;;;7.22;3.35;;;;;;;;;;5006233;28;20093;-82
2022/01/31 07:34:56;;;;;;;7.63;3.50;;;;;;;;;;5005465;28;20037;-82
2022/01/31 07:37:22;;;;;;;6.15;2.88;;;;;;;;;;5004817;28;20026;-81
2022/01/31 07:39:49;;;;;;;8.10;2.72;;;;;;;;;;5005532;28;20050;-82
2022/01/31 07:42:15;;;;;;;9.13;3.67;;;;;;;;;;5001881;28;20053;-82
2022/01/31 07:44:41;;;;;;;9.32;3.30;;;;;;;;;;5003523;28;20037;-83
2022/01/31 07:47:07;;;;;;;8.50;3.95;;;;;;;;;;4997887;28;20030;-83
2022/01/31 07:49:34;;;;;;;5.82;2.78;;;;;;;;;;4994522;28;20034;-82
2022/01/31 07:52:00;;;;;;;9.40;2.65;;;;;;;;;;4990675;28;20078;-82
2022/01/31 07:54:28;;;;;;;7.53;2.75;;;;;;;;;;4998533;28;20031;-82
2022/01/31 07:56:56;;;;;;;7.95;2.67;;;;;;;;;;5002791;28;20022;-82
2022/01/31 07:59:22;;;;;;;8.88;3.00;;;;;;;;;;5002081;28;20026;-83
2022/01/31 08:01:49;;;;;;;7.80;3.13;;;;;;;;;;5002676;28;20038;-83
2022/01/31 08:04:15;;;;;;;7.20;2.80;;;;;;;;;;5003190;28;20413;-82
2022/01/31 08:06:41;;;;;;;10.18;2.95;;;;;;;;;;5002844;28;20018;-81
2022/01/31 08:09:08;;;;;;;7.85;2.75;;;;;;;;;;4983616;28;20023;-83
2022/01/31 08:11:35;;;;;;;12.52;4.30;;;;;;;;;;5002309;28;20023;-83
2022/01/31 08:14:06;;;;;;;11.00;3.75;;;;;;;;;;5003519;28;20022;-82
2022/01/31 08:16:33;;;;;;;14.95;3.83;;;;;;;;;;5004280;28;20468;-82
2022/01/31 08:18:59;;;;;;;7.80;2.85;;;;;;;;;;5003305;28;20181;-81
2022/01/31 08:21:26;;;;;;;7.55;3.13;;;;;;;;;;5003085;28;20063;-81
2022/01/31 08:23:53;;;;;;;10.68;3.22;;;;;;;;;;5002524;28;20030;-81
2022/01/31 08:26:20;;;;;;;8.35;3.45;;;;;;;;;;5004335;28;20027;-82
2022/01/31 08:28:54;;;;;;;9.35;3.10;;;;;;;;;;5002435;28;20052;-82
2022/01/31 08:36:27;;;;;;;10.30;3.30;;;;;;;;;;4995977;28;20094;-82
2022/01/31 08:38:54;;;;;;;11.50;3.63;;;;;;;;;;5001562;28;20037;-82
2022/01/31 08:41:20;;;;;;;6.47;3.00;;;;;;;;;;4999377;28;20034;-82
2022/01/31 08:43:48;;;;;;;9.23;2.95;;;;;;;;;;5001847;28;20089;-82
2022/01/31 08:46:14;;;;;;;9.52;3.75;;;;;;;;;;5003528;28;20022;-83
2022/01/31 08:48:41;;;;;;;10.23;3.13;;;;;;;;;;5003076;28;20041;-82
2022/01/31 08:51:09;;;;;;;17.75;4.30;;;;;;;;;;5001223;28;20033;-80
2022/01/31 08:53:35;;;;;;;8.65;3.25;;;;;;;;;;5002412;28;20104;-80
2022/01/31 08:56:07;;;;;;;9.25;3.58;;;;;;;;;;5002905;28;20089;-81
2022/01/31 08:58:36;;;;;;;7.38;3.80;;;;;;;;;;5002764;28;20057;-83
2022/01/31 09:01:06;;;;;;;9.82;3.33;;;;;;;;;;5003662;28;20027;-82
2022/01/31 09:06:06;;;;;;;8.10;2.75;;;;;;;;;;5002845;28;20053;-81
2022/01/31 09:08:32;;;;;;;8.82;2.97;;;;;;;;;;5001957;28;20026;-82
2022/01/31 09:10:59;;;;;;;10.75;3.28;;;;;;;;;;5002179;28;20029;-82
2022/01/31 09:13:25;;;;;;;7.78;2.78;;;;;;;;;;5002142;28;20094;-81
2022/01/31 09:15:51;;;;;;;12.27;4.68;;;;;;;;;;5002257;28;20030;-82
2022/01/31 09:18:19;;;;;;;6.90;3.40;;;;;;;;;;5002830;28;20030;-82
2022/01/31 09:20:45;;;;;;;6.43;2.90;;;;;;;;;;5001578;28;20026;-81
2022/01/31 09:23:12;;;;;;;9.43;3.47;;;;;;;;;;5001630;28;20061;-81
2022/01/31 09:25:44;;;;;;;9.25;2.70;;;;;;;;;;4990231;28;20038;-81
2022/01/31 09:28:10;;;;;;;6.70;2.60;;;;;;;;;;5001310;28;20034;-83
2022/01/31 09:30:40;;;;;;;6.80;2.80;;;;;;;;;;5000314;28;20034;-81
2022/01/31 09:33:06;;;;;;;7.97;2.95;;;;;;;;;;4984756;28;20019;-81
2022/01/31 09:35:34;;;;;;;11.07;3.33;;;;;;;;;;4985670;28;20022;-81
2022/01/31 09:38:01;;;;;;;7.97;2.65;;;;;;;;;;5001954;28;20090;-81
2022/01/31 09:40:28;;;;;;;10.32;3.00;;;;;;;;;;5001298;28;20026;-82
2022/01/31 09:48:38;;;;;;;12.40;3.92;;;;;;;;;;5003353;28;20027;-83
2022/01/31 09:51:04;;;;;;;;;;;;;;;;;;4999881;28;20093;-81
2022/01/31 09:53:33;;;;;;;7.65;3.50;;;;;;;;;;5001102;28;19905;-81
2022/01/31 09:55:59;;;;;;;7.00;2.58;;;;;;;;;;4993872;28;20048;-82
2022/01/31 09:58:29;;;;;;;6.05;2.90;;;;;;;;;;5001116;28;20036;-82
2022/01/31 10:01:06;;;;;;;7.35;3.25;;;;;;;;;;4999924;28;20050;-81
2022/01/31 10:03:32;;;;;;;8.32;3.53;;;;;;;;;;5002115;28;20062;-80
2022/01/31 10:05:58;;;;;;;8.88;3.63;;;;;;;;;;5001366;28;20086;-82
2022/01/31 10:08:29;;;;;;;14.32;5.65;;;;;;;;;;5001488;28;20358;-81
2022/01/31 10:11:00;;;;;;;9.43;4.07;;;;;;;;;;5003024;28;20057;-81
2022/01/31 10:16:28;;;;;;;11.07;4.55;;;;;;;;;;5005100;28;20106;-82
2022/01/31 10:18:58;;;;;;;10.52;4.78;;;;;;;;;;5005121;28;20042;-83
2022/01/31 10:21:25;;;;;;;10.40;4.43;;;;;;;;;;4999724;28;20027;-82
2022/01/31 10:23:52;;;;;;;14.23;4.20;;;;;;;;;;4984423;28;20035;-80
2022/01/31 10:26:29;;;;;;;13.45;4.28;;;;;;;;;;4994101;28;20023;-80
2022/01/31 10:29:12;;;;;;;9.98;3.65;;;;;;;;;;5006404;28;20035;-79
2022/01/31 10:31:39;;;;;;;10.60;4.15;;;;;;;;;;5000450;28;20031;-81
2022/01/31 10:34:18;;;;;;;8.15;4.05;;;;;;;;;;5002661;28;20484;-83
2022/01/31 10:36:45;;;;;;;14.73;4.18;;;;;;;;;;5001712;28;20023;-81
2022/01/31 10:43:22;;;;;;;10.55;3.38;;;;;;;;;;5001796;28;20130;-81
2022/01/31 10:45:31;;;;;;;9.55;2.92;;;;;;;;;;4998760;28;20558;-82
2022/01/31 10:53:24;;;;;;;6.88;2.40;;;;;;;;;;4963644;28;20027;-83
2022/01/31 10:55:54;;;;;;;8.10;2.47;;;;;;;;;;4947594;29;20038;-81
2022/01/31 10:58:20;;;;;;;7.15;2.97;;;;;;;;;;4963437;29;20043;-80
2022/01/31 11:00:48;;;;;;;9.88;3.38;;;;;;;;;;4962738;28;20577;-81
2022/01/31 11:03:33;;;;;;;8.48;3.00;;;;;;;;;;4964173;29;20134;-83
2022/01/31 11:06:05;;;;;;;9.25;2.72;;;;;;;;;;4959432;28;20516;-82
2022/01/31 11:08:31;;;;;;;7.75;2.70;;;;;;;;;;4964622;28;20057;-82
2022/01/31 11:10:59;;;;;;;7.43;2.90;;;;;;;;;;4963775;29;20035;-81
2022/01/31 11:13:29;;;;;;;10.10;3.00;;;;;;;;;;4964319;29;20557;-82
2022/01/31 11:15:57;;;;;;;8.65;2.85;;;;;;;;;;4960057;29;20020;-81
2022/01/31 11:18:25;;;;;;;7.20;2.90;;;;;;;;;;4962367;29;20023;-82
2022/01/31 11:20:53;;;;;;;7.60;2.85;;;;;;;;;;4963178;29;20027;-82
2022/01/31 11:23:22;;;;;;;7.57;3.80;;;;;;;;;;4948397;29;20104;-82
2022/01/31 11:25:51;;;;;;;9.63;2.90;;;;;;;;;;4948812;29;20023;-82
2022/01/31 11:28:18;;;;;;;6.65;2.88;;;;;;;;;;4947010;29;20056;-82
2022/01/31 11:30:44;;;;;;;9.38;3.22;;;;;;;;;;4996465;28;20531;-82
2022/01/31 11:33:11;;;;;;;9.10;3.00;;;;;;;;;;5003540;28;20489;-81
2022/01/31 11:35:37;;;;;;;8.98;2.95;;;;;;;;;;5004025;28;20167;-82
2022/01/31 11:38:03;;;;;;;7.47;3.33;;;;;;;;;;5004388;28;20030;-82
2022/01/31 11:40:30;;;;;;;7.97;3.47;;;;;;;;;;5004738;28;20038;-81
2022/01/31 11:42:56;;;;;;;12.52;4.25;;;;;;;;;;5003476;28;20054;-82
2022/01/31 11:45:30;;;;;;;7.43;2.97;;;;;;;;;;4998583;28;20031;-83
2022/01/31 11:47:59;;;;;;;7.18;3.40;;;;;;;;;;4987226;28;20385;-81
2022/01/31 11:50:26;;;;;;;6.97;3.58;;;;;;;;;;5002670;28;20022;-82
2022/01/31 11:52:58;;;;;;;10.27;3.45;;;;;;;;;;5001252;28;20021;-82
2022/01/31 11:55:25;;;;;;;8.07;3.30;;;;;;;;;;5003610;28;20030;-84
2022/01/31 11:57:53;;;;;;;9.05;3.53;;;;;;;;;;5003590;28;20429;-83
2022/01/31 12:00:21;;;;;;;5.70;2.67;;;;;;;;;;5003595;28;20053;-82
2022/01/31 12:02:49;;;;;;;10.18;3.72;;;;;;;;;;4986614;28;20042;-82
2022/01/31 12:05:20;;;;;;;8.98;3.47;;;;;;;;;;5004748;28;20389;-81
2022/01/31 12:07:47;;;;;;;8.45;3.13;;;;;;;;;;5003330;28;20024;-81
2022/01/31 12:10:33;;;;;;;6.55;2.75;;;;;;;;;;5003821;28;20018;-82
2022/01/31 12:13:11;;;;;;;6.75;2.53;;;;;;;;;;5000625;28;20789;-82
2022/01/31 12:24:05;;;;;;;6.80;2.67;;;;;;;;;;4992665;28;20092;-82
2022/01/31 12:29:41;;;;;;;11.13;3.33;;;;;;;;;;5003162;28;20592;-83
2022/01/31 12:32:09;;;;;;;;;;;;;;;;;;5004032;28;20026;-83
2022/01/31 12:34:36;;;;;;;6.30;2.92;;;;;;;;;;5001523;28;19920;-83
2022/01/31 12:37:22;;;;;;;5.63;2.90;;;;;;;;;;4998972;28;20026;-82
2022/01/31 12:40:03;;;;;;;6.10;2.75;;;;;;;;;;4996503;28;20018;-82
2022/01/31 12:42:45;;;;;;;5.88;3.13;;;;;;;;;;4994430;28;20026;-82
2022/01/31 12:45:16;;;;;;;7.65;3.00;;;;;;;;;;5002625;28;20022;-83
2022/01/31 12:48:01;;;;;;;5.97;2.95;;;;;;;;;;5001315;28;20121;-81
2022/01/31 12:50:27;;;;;;;5.90;2.90;;;;;;;;;;5002106;28;20516;-82
2022/01/31 12:52:53;;;;;;;5.97;3.05;;;;;;;;;;5001882;28;20038;-83
2022/01/31 12:55:22;;;;;;;6.47;2.72;;;;;;;;;;4997294;28;20487;-82
2022/01/31 12:57:50;;;;;;;4.97;2.15;;;;;;;;;;5001912;28;20026;-83
2022/01/31 13:00:16;;;;;;;6.05;2.80;;;;;;;;;;5001480;28;20085;-82
2022/01/31 13:02:49;;;;;;;6.78;2.97;;;;;;;;;;4993956;28;20047;-83
2022/01/31 13:05:16;;;;;;;6.38;2.80;;;;;;;;;;4994525;28;20065;-83
2022/01/31 13:07:42;;;;;;;5.00;2.10;;;;;;;;;;5004230;28;20027;-83
2022/01/31 13:10:09;;;;;;;4.97;2.38;;;;;;;;;;5002591;28;20041;-85
2022/01/31 13:12:36;;;;;;;4.53;1.70;;;;;;;;;;4987852;28;20038;-83
2022/01/31 13:15:03;;;;;;;5.65;2.40;;;;;;;;;;4991341;28;20034;-84
2022/01/31 13:17:29;;;;;;;4.50;2.00;;;;;;;;;;5003228;28;20088;-82
2022/01/31 13:19:56;;;;;;;4.60;2.00;;;;;;;;;;5006066;28;20027;-83
2022/01/31 13:22:34;;;;;;;4.45;1.98;;;;;;;;;;5010702;28;20132;-82
2022/01/31 13:25:07;;;;;;;4.68;2.25;;;;;;;;;;5003036;28;20113;-82
2022/01/31 13:27:39;;;;;;;5.25;1.73;;;;;;;;;;4999420;28;20046;-85
2022/01/31 13:30:06;;;;;;;5.57;2.20;;;;;;;;;;4983962;28;20034;-83
2022/01/31 13:32:37;;;;;;;4.80;1.85;;;;;;;;;;5000507;28;20037;-82
2022/01/31 13:35:05;;;;;;;3.88;2.13;;;;;;;;;;5003492;28;20456;-81
2022/01/31 13:37:32;;;;;;;4.25;1.70;;;;;;;;;;5003225;28;20551;-81
2022/01/31 13:40:01;;;;;;;4.55;1.90;;;;;;;;;;5001484;28;20030;-81
2022/01/31 13:42:37;;;;;;;4.03;1.80;;;;;;;;;;5003796;28;20037;-82
2022/01/31 13:45:16;;;;;;;4.68;1.75;;;;;;;;;;5002654;28;20113;-81
2022/01/31 13:47:49;;;;;;;4.97;1.65;;;;;;;;;;5005802;28;20105;-83
2022/01/31 13:50:16;;;;;;;3.40;1.50;;;;;;;;;;5008335;28;20027;-81
2022/01/31 13:53:12;;;;;;;5.28;1.88;;;;;;;;;;5007033;28;20029;-81
2022/01/31 13:55:48;;;;;;;3.90;1.90;;;;;;;;;;4998284;28;20045;-82
2022/01/31 13:58:21;;;;;;;3.75;1.40;;;;;;;;;;5007777;28;20031;-82
2022/01/31 14:00:47;;;;;;;4.00;1.90;;;;;;;;;;5003118;28;20030;-80
2022/01/31 14:03:15;;;;;;;3.83;1.67;;;;;;;;;;5003435;28;20069;-83
2022/01/31 14:06:03;;;;;;;8.30;1.73;;;;;;;;;;5002002;28;20026;-82
2022/01/31 14:08:39;;;;;;;3.97;1.73;;;;;;;;;;5002762;28;20094;-83
2022/01/31 14:11:05;;;;;;;3.53;1.40;;;;;;;;;;5003278;28;20382;-82
2022/01/31 14:13:33;;;;;;;3.15;1.50;;;;;;;;;;5002673;28;20022;-85
2022/01/31 14:15:59;;;;;;;4.63;1.33;;;;;;;;;;5000896;28;20035;-83
2022/01/31 14:18:25;;;;;;;3.47;1.40;;;;;;;;;;5001536;28;20117;-83
2022/01/31 14:20:53;;;;;;;4.35;1.52;;;;;;;;;;5003138;28;20029;-83
2022/01/31 14:23:19;;;;;;;3.30;1.40;;;;;;;;;;5000896;28;20034;-84
2022/01/31 14:25:47;;;;;;;3.75;1.73;;;;;;;;;;4999127;28;20027;-82
2022/01/31 14:28:14;;;;;;;4.25;1.50;;;;;;;;;;5004567;28;20026;-83
2022/01/31 14:31:06;;;;;;;3.75;2.00;;;;;;;;;;5006154;28;20554;-83
2022/01/31 14:33:36;;;;;;;4.43;1.80;;;;;;;;;;5001285;28;20133;-85
2022/01/31 14:36:04;;;;;;;4.20;1.83;;;;;;;;;;5001016;28;20053;-82
2022/01/31 14:38:36;;;;;;;5.22;2.78;;;;;;;;;;5006020;28;20085;-82
2022/01/31 14:49:10;;;;;;;4.68;1.90;;;;;;;;;;5000973;28;20528;-83
2022/01/31 14:51:37;;;;;;;4.72;2.33;;;;;;;;;;4992811;28;20050;-83
2022/01/31 14:54:08;;;;;;;5.85;2.30;;;;;;;;;;5003542;28;20037;-83
2022/01/31 14:56:35;;;;;;;4.75;2.88;;;;;;;;;;5003438;28;20023;-82
2022/01/31 14:59:02;;;;;;;5.28;2.58;;;;;;;;;;5003730;28;20113;-83
2022/01/31 15:01:28;;;;;;;4.50;2.45;;;;;;;;;;5004553;28;20030;-81
2022/01/31 15:03:54;;;;;;;5.75;2.67;;;;;;;;;;5003331;28;20106;-82
2022/01/31 15:06:21;;;;;;;5.03;2.28;;;;;;;;;;5002729;28;20068;-81
2022/01/31 15:08:47;;;;;;;5.28;2.50;;;;;;;;;;5003672;28;20050;-81
2022/01/31 15:11:14;;;;;;;4.88;2.58;;;;;;;;;;4999835;28;20018;-83
2022/01/31 15:13:44;;;;;;;3.88;1.80;;;;;;;;;;4985283;28;20046;-83
2022/01/31 15:16:13;;;;;;;4.60;2.17;;;;;;;;;;5004883;28;20050;-82
2022/01/31 15:18:40;;;;;;;5.72;2.65;;;;;;;;;;5004028;28;20026;-82
2022/01/31 15:21:07;;;;;;;6.82;3.30;;;;;;;;;;5003268;28;20018;-82
2022/01/31 15:23:38;;;;;;;4.87;2.40;;;;;;;;;;5001751;28;20029;-83
2022/01/31 15:26:06;;;;;;;5.50;2.67;;;;;;;;;;4994009;28;20274;-82
2022/01/31 15:28:33;;;;;;;5.65;2.30;;;;;;;;;;4983008;28;20026;-81
2022/01/31 15:30:59;;;;;;;4.45;2.47;;;;;;;;;;4997777;28;20030;-81
2022/01/31 15:33:25;;;;;;;4.20;2.10;;;;;;;;;;5003310;28;20037;-82
2022/01/31 15:35:54;;;;;;;4.50;1.90;;;;;;;;;;5001550;28;20050;-81
2022/01/31 15:38:20;;;;;;;4.70;2.33;;;;;;;;;;5001756;28;20022;-82